Godthab, Greenland

9:14 AM WGT on December 04, 2016 (GMT -0300)
Jagtvej | | Change Station

Elev 0 ft 64.16 °N, 51.74 °W | Updated 7 minutes ago

Mostly Cloudy
Mostly Cloudy
16.9 °F
Feels Like 9 °F
N
5.6
Wind Variable Wind from NNE
Gusts 9.3 mph

Today
High -- | Low -- °F
--% Chance of Precip.
Yesterday
High -- | Low -- °F
Precip. -- in
Pressure 29.42 in
Visibility 6.2 miles
Clouds Mostly Cloudy 19000 ft
Windchill 9 °F
Dew Point 12 °F
Humidity 82%
Rainfall 0.00 in
Snow Depth Not available.
9:54 AM 2:39 PM
Waxing Crescent, 22% visible
METAR BGGH 041150Z AUTO 05012KT 9999NDV BKN190/// M09/M11 Q0996
Pressure 29.42 in
Visibility 6.2 miles
Clouds Mostly Cloudy 19000 ft
Windchill 9 °F
Dew Point 12 °F
Humidity 82%
Rainfall 0.00 in
Snow Depth Not available.
9:54 AM 2:39 PM
Waxing Crescent, 22% visible
METAR BGGH 041150Z AUTO 05012KT 9999NDV BKN190/// M09/M11 Q0996

10-Day Weather Forecast

×

Almanac

Astronomy

Dec. 04, 2016 Rise Set
Actual Time
Civil Twilight
Nautical Twilight
Astronomical Twilight
Moon
Length of Visible Light
Length of Day
Tomorrow will be .
, % of the Moon is Illuminated

Today's Extremes

Country Highs Country Lows

Community

WunderPhotos

Upload Photos

1,955,591 photos uploaded!

WunderBlog® & News

Nearby

Air Quality

  Air Quality AQ Index Pollutant
Not available.

Snow Depth

Station Depth Elevation

Earthquake Activity

City Distance Mag. Time & Date
Minimum magnitude displayed is 2.5.

Coastal Water Temperatures

Place Temperature

Stations

Nearby Weather Stations

Station Location Temp. Windchill Dew Point Humidity Wind Precip. Elev Updated Type